createdAt,value
2023-04-11T00:00:36.504Z,99359.20
2023-04-11T00:03:13.949Z,99353.80
2023-04-11T00:05:42.884Z,99350.00
2023-04-11T00:08:10.987Z,99348.60
2023-04-11T00:10:39.442Z,99344.80
2023-04-11T00:13:07.722Z,99347.20
2023-04-11T00:15:36.449Z,99343.80
2023-04-11T00:18:06.737Z,99343.00
2023-04-11T00:20:34.805Z,99340.60
2023-04-11T00:23:02.906Z,99336.00
2023-04-11T00:25:31.696Z,99336.20
2023-04-11T00:28:00.048Z,99332.20
2023-04-11T00:30:28.023Z,99335.60
2023-04-11T00:32:56.220Z,99333.20
2023-04-11T00:35:24.548Z,99332.60
2023-04-11T00:37:56.310Z,99331.60
2023-04-11T00:40:24.692Z,99330.00
2023-04-11T00:42:52.699Z,99333.00
2023-04-11T00:45:21.144Z,99329.80
2023-04-11T00:47:51.049Z,99322.20
2023-04-11T00:50:22.204Z,99322.20
2023-04-11T00:52:50.396Z,99313.20
2023-04-11T00:55:18.354Z,99311.40
2023-04-11T00:57:46.613Z,99308.80
2023-04-11T01:00:15.650Z,99301.00
2023-04-11T01:02:43.843Z,99299.60
2023-04-11T01:05:13.249Z,99299.00
2023-04-11T01:07:44.069Z,99296.40
2023-04-11T01:10:12.194Z,99301.20
2023-04-11T01:12:40.362Z,99292.60
2023-04-11T01:15:09.529Z,99296.20
2023-04-11T01:17:37.973Z,99288.40
2023-04-11T01:20:08.837Z,99284.60
2023-04-11T01:22:37.568Z,99287.00
2023-04-11T01:25:06.863Z,99278.60
2023-04-11T01:27:35.147Z,99280.20
2023-04-11T01:30:03.486Z,99285.80
2023-04-11T01:32:31.723Z,99276.60
2023-04-11T01:34:59.868Z,99275.20
2023-04-11T01:37:28.004Z,99274.60
2023-04-11T01:39:56.213Z,99272.00
2023-04-11T01:42:24.594Z,99264.20
2023-04-11T01:44:53.934Z,99268.00
2023-04-11T01:47:22.651Z,99265.60
2023-04-11T01:49:53.882Z,99260.80
2023-04-11T01:52:21.995Z,99264.00
2023-04-11T01:54:50.270Z,99261.40
2023-04-11T01:57:18.278Z,99260.60
2023-04-11T01:59:46.496Z,99253.80
2023-04-11T02:02:14.841Z,99253.60
2023-04-11T02:04:43.134Z,99248.00
2023-04-11T02:07:12.308Z,99243.80
2023-04-11T02:09:40.745Z,99234.80
2023-04-11T02:12:08.921Z,99236.00
2023-04-11T02:14:44.764Z,99231.80
2023-04-11T02:17:14.349Z,99228.80
2023-04-11T02:19:45.502Z,99223.80
2023-04-11T02:22:16.046Z,99221.80
2023-04-11T02:24:44.228Z,99210.80
2023-04-11T02:27:12.596Z,99205.60
2023-04-11T02:29:40.692Z,99200.00
2023-04-11T02:32:10.140Z,99198.20
2023-04-11T02:34:38.326Z,99202.20
2023-04-11T02:37:06.729Z,99195.40
2023-04-11T02:39:35.562Z,99197.60
2023-04-11T02:42:03.795Z,99194.20
2023-04-11T02:44:32.058Z,99182.60
2023-04-11T02:47:01.059Z,99187.00
2023-04-11T02:49:29.642Z,99179.20
2023-04-11T02:51:58.242Z,99177.80
2023-04-11T02:54:26.671Z,99185.40
2023-04-11T02:56:56.774Z,99176.20
2023-04-11T02:59:25.304Z,99176.40
2023-04-11T03:02:00.299Z,99176.80
2023-04-11T03:04:29.132Z,99178.00
2023-04-11T03:07:08.178Z,99180.20
2023-04-11T03:09:36.905Z,99177.80
2023-04-11T03:12:05.239Z,99175.20
2023-04-11T03:14:34.999Z,99175.80
2023-04-11T03:17:03.191Z,99167.20
2023-04-11T03:19:33.411Z,99168.60
2023-04-11T03:22:02.349Z,99166.00
2023-04-11T03:24:30.690Z,99155.60
2023-04-11T03:26:58.965Z,99161.40
2023-04-11T03:29:27.380Z,99158.00
2023-04-11T03:32:06.462Z,99159.60
2023-04-11T03:34:35.884Z,99161.00
2023-04-11T03:37:06.006Z,99160.40
2023-04-11T03:39:35.919Z,99161.20
2023-04-11T03:42:04.600Z,99162.80
2023-04-11T03:44:34.307Z,99161.80
2023-04-11T03:47:02.989Z,99158.60
2023-04-11T03:49:37.304Z,99160.20
2023-04-11T03:52:11.739Z,99157.60
2023-04-11T03:54:57.639Z,99156.40
2023-04-11T03:57:30.720Z,99151.00
2023-04-11T04:00:01.228Z,99145.60
2023-04-11T04:02:30.322Z,99146.40
2023-04-11T04:04:59.054Z,99138.00
2023-04-11T04:07:35.473Z,99136.60
2023-04-11T04:10:10.437Z,99140.60
2023-04-11T04:12:40.428Z,99136.20
2023-04-11T04:15:15.665Z,99139.60
2023-04-11T04:17:46.553Z,99135.60
2023-04-11T04:20:21.721Z,99131.80
2023-04-11T04:22:54.134Z,99127.80
2023-04-11T04:25:28.353Z,99119.20
2023-04-11T04:27:58.409Z,99117.80
2023-04-11T04:30:30.453Z,99114.00
2023-04-11T04:33:14.774Z,99110.00
2023-04-11T04:35:47.187Z,99102.00
2023-04-11T04:38:19.623Z,99106.60
2023-04-11T04:40:54.952Z,99099.80
2023-04-11T04:43:27.453Z,99096.00
2023-04-11T04:46:17.771Z,99093.20
2023-04-11T04:48:50.496Z,99084.80
2023-04-11T04:51:18.884Z,99090.60
2023-04-11T04:53:49.112Z,99084.00
2023-04-11T04:56:19.645Z,99079.40
2023-04-11T04:58:48.421Z,99082.00
2023-04-11T05:01:17.634Z,99078.20
2023-04-11T05:03:50.862Z,99080.00
2023-04-11T05:06:31.883Z,99075.60
2023-04-11T05:09:02.553Z,99073.00
2023-04-11T05:11:31.065Z,99072.00
2023-04-11T05:13:59.290Z,99067.20
2023-04-11T05:16:30.282Z,99065.80
2023-04-11T05:18:58.786Z,99065.40
2023-04-11T05:21:27.374Z,99065.00
2023-04-11T05:23:56.564Z,99064.60
2023-04-11T05:26:25.877Z,99058.40
2023-04-11T05:28:55.479Z,99060.60
2023-04-11T05:31:28.907Z,99053.80
2023-04-11T05:33:58.216Z,99044.20
2023-04-11T05:36:28.592Z,99037.60
2023-04-11T05:38:56.790Z,99039.80
2023-04-11T05:41:24.805Z,99035.40
2023-04-11T05:43:52.850Z,99038.40
2023-04-11T05:46:23.628Z,99037.80
2023-04-11T05:48:51.830Z,99031.00
2023-04-11T05:51:19.997Z,99034.20
2023-04-11T05:53:48.268Z,99032.00
2023-04-11T05:56:18.298Z,99028.40
2023-04-11T05:58:46.197Z,99021.40
2023-04-11T06:01:18.613Z,99016.00
2023-04-11T06:03:47.298Z,99012.20
2023-04-11T06:06:15.891Z,99016.40
2023-04-11T06:08:44.385Z,99011.40
2023-04-11T06:11:12.538Z,98997.40
2023-04-11T06:13:40.748Z,98999.60
2023-04-11T06:16:09.678Z,98995.20
2023-04-11T06:18:38.207Z,98995.40
2023-04-11T06:21:07.215Z,98991.60
2023-04-11T06:23:35.059Z,98990.60
2023-04-11T06:26:03.458Z,98986.80
2023-04-11T06:28:33.748Z,98986.80
2023-04-11T06:31:02.016Z,98987.40
2023-04-11T06:33:30.077Z,98980.40
2023-04-11T06:36:00.959Z,98983.20
2023-04-11T06:38:29.093Z,98976.00
2023-04-11T06:40:57.387Z,98976.40
2023-04-11T06:43:25.464Z,98973.80
2023-04-11T06:45:54.062Z,98972.40
2023-04-11T06:48:21.936Z,98972.80
2023-04-11T06:50:49.944Z,98972.40
2023-04-11T06:53:17.756Z,98974.80
2023-04-11T06:55:49.769Z,98969.60
2023-04-11T06:58:17.623Z,98971.40
2023-04-11T07:00:45.661Z,98971.40
2023-04-11T07:03:14.301Z,98963.20
2023-04-11T07:05:42.506Z,98963.80
2023-04-11T07:08:10.889Z,98956.80
2023-04-11T07:10:38.772Z,98954.20
2023-04-11T07:13:06.745Z,98957.40
2023-04-11T07:15:34.792Z,98958.00
2023-04-11T07:18:05.095Z,98952.80
2023-04-11T07:20:34.553Z,98947.60
2023-04-11T07:23:03.600Z,98940.80
2023-04-11T07:25:33.579Z,98942.20
2023-04-11T07:28:01.592Z,98942.80
2023-04-11T07:30:29.971Z,98936.60
2023-04-11T07:32:57.919Z,98928.00
2023-04-11T07:35:25.903Z,98921.80
2023-04-11T07:37:57.679Z,98915.60
2023-04-11T07:40:25.481Z,98911.60
2023-04-11T07:42:53.417Z,98915.80
2023-04-11T07:45:21.648Z,98903.40
2023-04-11T07:47:52.403Z,98907.00
2023-04-11T07:50:21.525Z,98916.20
2023-04-11T07:52:56.029Z,98910.60
2023-04-11T07:55:27.230Z,98913.20
2023-04-11T07:57:55.237Z,98904.60
2023-04-11T08:00:23.527Z,98900.60
2023-04-11T08:02:52.597Z,98900.40
2023-04-11T08:05:21.141Z,98899.20
2023-04-11T08:07:49.361Z,98888.80
2023-04-11T08:10:19.737Z,98881.20
2023-04-11T08:12:47.704Z,98880.00
2023-04-11T08:15:15.997Z,98863.20
2023-04-11T08:17:45.619Z,98864.40
2023-04-11T08:20:16.497Z,98858.60
2023-04-11T08:22:46.862Z,98843.00
2023-04-11T08:25:15.048Z,98845.60
2023-04-11T08:27:42.988Z,98840.20
2023-04-11T08:30:11.984Z,98845.00
2023-04-11T08:32:41.043Z,98841.20
2023-04-11T08:35:15.098Z,98840.80
2023-04-11T08:37:45.680Z,98830.80
2023-04-11T08:40:13.738Z,98823.00
2023-04-11T08:42:47.472Z,98822.40
2023-04-11T08:45:15.441Z,98816.80
2023-04-11T08:47:45.468Z,98815.20
2023-04-11T08:50:17.864Z,98812.60
2023-04-11T08:52:47.951Z,98803.00
2023-04-11T08:55:15.926Z,98802.00
2023-04-11T08:57:44.062Z,98806.80
2023-04-11T09:00:19.425Z,98793.20
2023-04-11T09:02:57.628Z,98787.40
2023-04-11T09:05:33.517Z,98789.00
2023-04-11T09:08:16.105Z,98778.00
2023-04-11T09:10:47.183Z,98767.20
2023-04-11T09:13:28.817Z,98768.00
2023-04-11T09:16:07.497Z,98772.20
2023-04-11T09:18:44.918Z,98773.40
2023-04-11T09:21:17.122Z,98781.40
2023-04-11T09:23:45.359Z,98774.20
2023-04-11T09:26:13.503Z,98770.40
2023-04-11T09:28:44.322Z,98766.80
2023-04-11T09:31:15.985Z,98759.60
2023-04-11T09:34:02.841Z,98762.80
2023-04-11T09:36:31.113Z,98761.80
2023-04-11T09:38:59.535Z,98762.60
2023-04-11T09:41:34.700Z,98764.60
2023-04-11T09:44:02.888Z,98761.40
2023-04-11T09:46:31.241Z,98757.20
2023-04-11T09:49:01.900Z,98749.80
2023-04-11T09:51:35.992Z,98740.80
2023-04-11T09:54:12.103Z,98738.40
2023-04-11T09:56:41.453Z,98746.40
2023-04-11T09:59:22.676Z,98740.20
2023-04-11T10:02:00.974Z,98732.60
2023-04-11T10:04:47.831Z,98722.80
2023-04-11T10:07:21.823Z,98722.80
2023-04-11T10:09:53.017Z,98718.00
2023-04-11T10:12:35.334Z,98720.60
2023-04-11T10:15:09.270Z,98722.60
2023-04-11T10:17:41.230Z,98715.80
2023-04-11T10:20:45.046Z,98708.20
2023-04-11T10:23:19.660Z,98706.60
2023-04-11T10:26:17.840Z,98701.80
2023-04-11T10:28:51.640Z,98700.80
2023-04-11T10:31:20.854Z,98693.40
2023-04-11T10:34:18.190Z,98697.40
2023-04-11T10:37:07.825Z,98690.00
2023-04-11T10:39:55.026Z,98692.60
2023-04-11T10:42:34.688Z,98686.20
2023-04-11T10:45:30.452Z,98691.60
2023-04-11T10:48:13.102Z,98679.40
2023-04-11T10:54:26.017Z,98676.40
2023-04-11T10:56:55.233Z,98668.20
2023-04-11T10:59:32.384Z,98667.80
2023-04-11T11:02:01.769Z,98665.00
2023-04-11T11:04:35.219Z,98660.20
2023-04-11T11:07:22.860Z,98658.80
2023-04-11T11:09:51.509Z,98656.40
2023-04-11T11:12:24.691Z,98650.80
2023-04-11T11:14:57.825Z,98655.00
2023-04-11T11:17:28.333Z,98647.00
2023-04-11T11:19:58.754Z,98636.80
2023-04-11T11:22:29.992Z,98642.60
2023-04-11T11:25:08.744Z,98643.00
2023-04-11T11:27:39.163Z,98636.80
2023-04-11T11:30:13.953Z,98633.80
2023-04-11T11:32:47.423Z,98633.20
2023-04-11T11:35:22.088Z,98636.80
2023-04-11T11:37:54.099Z,98636.60
2023-04-11T11:40:24.543Z,98634.60
2023-04-11T11:42:55.055Z,98630.40
2023-04-11T11:45:26.898Z,98638.60
2023-04-11T11:48:25.627Z,98634.80
2023-04-11T11:51:00.987Z,98633.00
2023-04-11T11:53:31.520Z,98629.20
2023-04-11T11:56:02.482Z,98626.20
2023-04-11T11:58:43.500Z,98620.60
2023-04-11T12:01:16.387Z,98623.60
2023-04-11T12:03:45.008Z,98619.40
2023-04-11T12:06:13.692Z,98616.20
2023-04-11T12:08:45.769Z,98613.60
2023-04-11T12:11:19.199Z,98611.00
2023-04-11T12:13:52.673Z,98618.20
2023-04-11T12:16:27.147Z,98600.40
2023-04-11T12:19:00.062Z,98602.60
2023-04-11T12:21:31.550Z,98599.80
2023-04-11T12:23:59.590Z,98598.80
2023-04-11T12:26:31.937Z,98595.20
2023-04-11T12:29:02.475Z,98582.40
2023-04-11T12:31:38.464Z,98583.00
2023-04-11T12:34:08.427Z,98578.80
2023-04-11T12:36:38.924Z,98572.80
2023-04-11T12:39:07.453Z,98574.80
2023-04-11T12:41:36.033Z,98569.20
2023-04-11T12:44:06.290Z,98559.60
2023-04-11T12:46:34.470Z,98557.20
2023-04-11T12:49:03.530Z,98557.40
2023-04-11T12:51:34.359Z,98553.40
2023-04-11T12:54:02.834Z,98554.20
2023-04-11T12:56:36.348Z,98540.80
2023-04-11T12:59:08.108Z,98538.00
2023-04-11T13:01:37.347Z,98540.60
2023-04-11T13:04:07.506Z,98533.40
2023-04-11T13:06:39.045Z,98526.00
2023-04-11T13:09:16.678Z,98539.40
2023-04-11T13:11:47.427Z,98530.40
2023-04-11T13:14:16.675Z,98531.20
2023-04-11T13:16:48.528Z,98536.60
2023-04-11T13:19:16.734Z,98523.80
2023-04-11T13:21:45.124Z,98518.00
2023-04-11T13:24:13.520Z,98512.20
2023-04-11T13:26:41.615Z,98512.40
2023-04-11T13:29:09.555Z,98513.40
2023-04-11T13:31:37.886Z,98511.20
2023-04-11T13:34:07.035Z,98513.80
2023-04-11T13:36:35.951Z,98517.40
2023-04-11T13:39:05.839Z,98496.40
2023-04-11T13:41:33.991Z,98502.60
2023-04-11T13:44:01.706Z,98509.20
2023-04-11T13:46:30.714Z,98494.20
2023-04-11T13:48:58.686Z,98487.40
2023-04-11T13:51:27.600Z,98477.20
2023-04-11T13:53:56.035Z,98472.60
2023-04-11T13:56:23.874Z,98469.00
2023-04-11T13:58:52.028Z,98469.40
2023-04-11T14:01:20.258Z,98471.60
2023-04-11T14:03:49.737Z,98462.60
2023-04-11T14:06:19.472Z,98462.60
2023-04-11T14:08:49.182Z,98460.00
2023-04-11T14:11:17.761Z,98464.20
2023-04-11T14:13:45.684Z,98463.20
2023-04-11T14:16:13.657Z,98461.40
2023-04-11T14:18:42.426Z,98466.00
2023-04-11T14:21:10.110Z,98463.40
2023-04-11T14:23:38.058Z,98457.40
2023-04-11T14:26:06.610Z,98445.00
2023-04-11T14:28:35.220Z,98452.60
2023-04-11T14:31:03.299Z,98448.60
2023-04-11T14:33:31.964Z,98444.80
2023-04-11T14:35:59.781Z,98449.20
2023-04-11T14:38:27.786Z,98439.20
2023-04-11T14:40:55.650Z,98446.40
2023-04-11T14:43:23.656Z,98446.20
2023-04-11T14:45:59.272Z,98451.40
2023-04-11T14:48:30.761Z,98446.80
2023-04-11T14:51:03.354Z,98448.80
2023-04-11T14:53:31.863Z,98441.40
2023-04-11T14:55:59.797Z,98439.20
2023-04-11T14:58:27.705Z,98435.40
2023-04-11T15:00:56.044Z,98432.60
2023-04-11T15:03:24.677Z,98435.00
2023-04-11T15:05:52.629Z,98435.40
2023-04-11T15:08:21.053Z,98442.00
2023-04-11T15:10:54.184Z,98434.00
2023-04-11T15:13:22.606Z,98431.40
2023-04-11T15:15:51.477Z,98428.60
2023-04-11T15:18:21.501Z,98424.80
2023-04-11T15:20:50.129Z,98423.60
2023-04-11T15:23:19.211Z,98420.20
2023-04-11T15:25:57.602Z,98417.40
2023-04-11T15:28:26.796Z,98410.60
2023-04-11T15:30:55.502Z,98418.60
2023-04-11T15:33:24.446Z,98417.00
2023-04-11T15:35:57.257Z,98412.20
2023-04-11T15:38:27.272Z,98404.20
2023-04-11T15:40:58.757Z,98398.60
2023-04-11T15:43:27.330Z,98390.60
2023-04-11T15:45:55.409Z,98394.80
2023-04-11T15:48:23.312Z,98388.00
2023-04-11T15:50:51.340Z,98385.20
2023-04-11T15:53:19.306Z,98376.80
2023-04-11T15:55:47.457Z,98375.60
2023-04-11T15:58:15.474Z,98381.20
2023-04-11T16:00:43.874Z,98380.60
2023-04-11T16:03:12.062Z,98381.60
2023-04-11T16:05:43.027Z,98378.20
2023-04-11T16:08:11.050Z,98374.40
2023-04-11T16:10:38.997Z,98374.80
2023-04-11T16:13:07.143Z,98374.60
2023-04-11T16:15:35.057Z,98371.20
2023-04-11T16:18:03.154Z,98369.60
2023-04-11T16:20:33.360Z,98369.20
2023-04-11T16:23:01.241Z,98371.20
2023-04-11T16:25:29.530Z,98381.40
2023-04-11T16:27:57.948Z,98394.40
2023-04-11T16:30:28.024Z,98415.80
2023-04-11T16:32:56.624Z,98424.80
2023-04-11T16:35:24.984Z,98451.60
2023-04-11T16:37:53.102Z,98453.00
2023-04-11T16:40:21.199Z,98455.80
2023-04-11T16:42:49.391Z,98467.60
2023-04-11T16:45:17.181Z,98465.00
2023-04-11T16:47:45.735Z,98467.60
2023-04-11T16:50:14.858Z,98473.20
2023-04-11T16:52:43.281Z,98482.40
2023-04-11T16:55:11.952Z,98495.60
2023-04-11T16:57:39.897Z,98499.60
2023-04-11T17:00:15.546Z,98491.80
2023-04-11T17:02:43.667Z,98504.00
2023-04-11T17:05:12.742Z,98507.20
2023-04-11T17:07:42.062Z,98514.40
2023-04-11T17:10:10.218Z,98511.80
2023-04-11T17:12:38.004Z,98507.80
2023-04-11T17:15:09.054Z,98516.80
2023-04-11T17:17:37.351Z,98517.20
2023-04-11T17:20:09.703Z,98520.80
2023-04-11T17:22:41.497Z,98524.80
2023-04-11T17:25:10.706Z,98525.60
2023-04-11T17:27:40.690Z,98517.20
2023-04-11T17:30:09.919Z,98518.40
2023-04-11T17:32:39.146Z,98524.60
2023-04-11T17:35:07.499Z,98536.20
2023-04-11T17:37:36.108Z,98542.00
2023-04-11T17:40:12.766Z,98552.80
2023-04-11T17:42:41.554Z,98557.60
2023-04-11T17:47:44.720Z,98571.60
2023-04-11T17:50:13.193Z,98575.20
2023-04-11T17:52:44.453Z,98570.60
2023-04-11T17:55:17.404Z,98569.00
2023-04-11T17:57:51.327Z,98570.60
2023-04-11T18:00:24.082Z,98574.40
2023-04-11T18:02:59.409Z,98573.00
2023-04-11T18:05:31.046Z,98570.40
2023-04-11T18:07:59.799Z,98577.40
2023-04-11T18:10:28.243Z,98576.00
2023-04-11T18:12:57.613Z,98580.40
2023-04-11T18:15:26.384Z,98580.20
2023-04-11T18:17:54.942Z,98583.20
2023-04-11T18:20:23.304Z,98582.20
2023-04-11T18:22:54.876Z,98580.00
2023-04-11T18:25:23.808Z,98582.20
2023-04-11T18:27:51.966Z,98579.40
2023-04-11T18:30:20.461Z,98582.40
2023-04-11T18:32:50.946Z,98582.80
2023-04-11T18:35:19.605Z,98579.00
2023-04-11T18:37:47.888Z,98577.40
2023-04-11T18:40:16.512Z,98578.20
2023-04-11T18:42:48.891Z,98581.60
2023-04-11T18:45:18.119Z,98588.20
2023-04-11T18:47:46.795Z,98589.00
2023-04-11T18:50:15.936Z,98589.00
2023-04-11T18:52:45.441Z,98584.80
2023-04-11T18:55:14.594Z,98587.80
2023-04-11T18:57:46.655Z,98585.00
2023-04-11T19:00:18.989Z,98587.80
2023-04-11T19:02:50.320Z,98583.20
2023-04-11T19:05:19.241Z,98588.00
2023-04-11T19:07:47.587Z,98595.40
2023-04-11T19:10:16.084Z,98598.60
2023-04-11T19:12:44.424Z,98598.40
2023-04-11T19:15:13.008Z,98610.60
2023-04-11T19:17:41.389Z,98612.20
2023-04-11T19:20:13.547Z,98614.60
2023-04-11T19:22:41.976Z,98611.60
2023-04-11T19:25:11.350Z,98602.60
2023-04-11T19:27:42.017Z,98592.20
2023-04-11T19:30:13.487Z,98583.20
2023-04-11T19:32:44.098Z,98583.60
2023-04-11T19:35:12.686Z,98587.40
2023-04-11T19:37:41.196Z,98586.60
2023-04-11T19:40:11.242Z,98593.40
2023-04-11T19:42:40.413Z,98589.60
2023-04-11T19:45:09.998Z,98596.00
2023-04-11T19:47:40.366Z,98590.80
2023-04-11T19:50:13.031Z,98592.60
2023-04-11T19:52:42.575Z,98590.20
2023-04-11T19:55:11.656Z,98589.00
2023-04-11T19:57:40.389Z,98588.60
2023-04-11T20:00:14.457Z,98591.20
2023-04-11T20:02:44.979Z,98593.00
2023-04-11T20:05:21.736Z,98593.00
2023-04-11T20:07:49.828Z,98593.40
2023-04-11T20:10:17.761Z,98590.60
2023-04-11T20:12:45.925Z,98587.20
2023-04-11T20:15:14.867Z,98590.40
2023-04-11T20:17:45.287Z,98591.80
2023-04-11T20:20:15.856Z,98590.60
2023-04-11T20:22:45.064Z,98591.60
2023-04-11T20:25:13.138Z,98594.20
2023-04-11T20:27:42.550Z,98593.20
2023-04-11T20:30:12.195Z,98591.40
2023-04-11T20:32:40.526Z,98593.20
2023-04-11T20:35:10.206Z,98602.20
2023-04-11T20:37:40.213Z,98600.40
2023-04-11T20:40:10.219Z,98602.80
2023-04-11T20:42:46.139Z,98604.80
2023-04-11T20:45:16.420Z,98607.80
2023-04-11T20:47:46.711Z,98605.20
2023-04-11T20:50:15.955Z,98610.80
2023-04-11T20:52:45.978Z,98616.80
2023-04-11T20:55:14.659Z,98615.40
2023-04-11T20:57:42.490Z,98621.80
2023-04-11T21:00:15.012Z,98625.60
2023-04-11T21:02:45.875Z,98628.00
2023-04-11T21:05:14.010Z,98627.80
2023-04-11T21:07:42.321Z,98624.60
2023-04-11T21:10:10.904Z,98625.60
2023-04-11T21:12:38.843Z,98622.60
2023-04-11T21:15:08.703Z,98619.80
2023-04-11T21:17:37.409Z,98626.00
2023-04-11T21:20:17.874Z,98634.40
2023-04-11T21:22:54.917Z,98632.00
2023-04-11T21:25:23.374Z,98631.80
2023-04-11T21:27:51.231Z,98629.80
2023-04-11T21:30:19.033Z,98629.20
2023-04-11T21:32:46.928Z,98632.80
2023-04-11T21:35:14.927Z,98626.20
2023-04-11T21:37:42.852Z,98625.80
2023-04-11T21:40:12.786Z,98625.60
2023-04-11T21:42:41.015Z,98625.40
2023-04-11T21:45:08.922Z,98621.60
2023-04-11T21:47:37.076Z,98625.20
2023-04-11T21:50:06.008Z,98623.20
2023-04-11T21:52:33.747Z,98617.00
2023-04-11T21:55:01.570Z,98626.80
2023-04-11T21:57:33.838Z,98627.20
2023-04-11T22:00:01.685Z,98623.40
2023-04-11T22:02:40.231Z,98618.20
2023-04-11T22:05:12.548Z,98620.60
2023-04-11T22:07:46.539Z,98625.80
2023-04-11T22:10:15.387Z,98622.40
2023-04-11T22:12:45.907Z,98610.20
2023-04-11T22:15:14.340Z,98620.00
2023-04-11T22:17:43.831Z,98619.60
2023-04-11T22:20:12.556Z,98621.80
2023-04-11T22:22:40.456Z,98623.80
2023-04-11T22:25:10.039Z,98622.80
2023-04-11T22:27:38.543Z,98621.40
2023-04-11T22:30:08.838Z,98621.80
2023-04-11T22:32:37.393Z,98626.00
2023-04-11T22:35:06.848Z,98624.20
2023-04-11T22:37:55.612Z,98625.60
2023-04-11T22:40:24.276Z,98633.40
2023-04-11T22:42:52.453Z,98626.60
2023-04-11T22:45:21.858Z,98625.60
2023-04-11T22:47:54.445Z,98626.20
2023-04-11T22:50:23.111Z,98626.60
2023-04-11T22:52:51.010Z,98625.20
2023-04-11T22:55:21.362Z,98627.20
2023-04-11T22:57:49.547Z,98625.60
2023-04-11T23:00:18.846Z,98620.80
2023-04-11T23:02:47.259Z,98621.80
2023-04-11T23:05:16.873Z,98616.60
2023-04-11T23:07:44.783Z,98613.20
2023-04-11T23:10:15.143Z,98609.00
2023-04-11T23:12:44.434Z,98606.40
2023-04-11T23:15:12.582Z,98605.60
2023-04-11T23:17:41.538Z,98601.20
2023-04-11T23:20:11.227Z,98603.80
2023-04-11T23:22:42.265Z,98599.20
2023-04-11T23:25:14.166Z,98602.60
2023-04-11T23:31:08.068Z,98592.20
2023-04-11T23:33:36.074Z,98591.00
2023-04-11T23:36:04.988Z,98593.80
2023-04-11T23:38:32.870Z,98590.00
2023-04-11T23:41:00.695Z,98589.60
2023-04-11T23:43:28.530Z,98586.60
2023-04-11T23:45:56.744Z,98589.00
2023-04-11T23:48:24.793Z,98588.40
2023-04-11T23:50:52.542Z,98590.40
2023-04-11T23:53:20.777Z,98593.60
2023-04-11T23:55:48.695Z,98594.60
2023-04-11T23:58:16.408Z,98591.00
